Time;durP1;ratioP1;P1;durP2;ratioP2;P2;SDS_P1;SDS_P2;PMS_P1;PMS_P2;Temp;Humidity;BMP_temperature;BMP_pressure;BME280_temperature;BME280_humidity;BME280_pressure;Samples;Min_cycle;Max_cycle;Signal;HPM_P1;HPM_P2
2021/09/03 00:00:57;;;;;;;41.22;25.48;;;12.70;99.90;;;;;;5088890;28;20104;-63
2021/09/03 00:03:24;;;;;;;37.47;24.23;;;12.70;99.90;;;;;;5084290;28;20056;-62
2021/09/03 00:05:52;;;;;;;38.35;24.67;;;12.70;99.90;;;;;;5070425;28;20060;-62
2021/09/03 00:08:20;;;;;;;34.85;25.67;;;12.70;99.90;;;;;;5084544;28;20053;-62
2021/09/03 00:10:49;;;;;;;37.88;25.77;;;12.70;99.90;;;;;;5089329;28;20059;-61
2021/09/03 00:13:16;;;;;;;34.25;24.48;;;12.70;99.90;;;;;;5088525;28;20090;-60
2021/09/03 00:15:44;;;;;;;39.03;24.90;;;12.70;99.90;;;;;;5095544;28;20055;-62
2021/09/03 00:18:10;;;;;;;35.85;25.08;;;12.70;99.90;;;;;;5092935;28;20051;-61
2021/09/03 00:20:37;;;;;;;37.67;25.70;;;12.60;99.90;;;;;;5088712;28;20063;-61
2021/09/03 00:23:05;;;;;;;39.97;26.52;;;12.70;99.90;;;;;;5087197;28;20047;-61
2021/09/03 00:25:31;;;;;;;34.22;24.48;;;12.60;99.90;;;;;;5078425;28;20083;-61
2021/09/03 00:28:01;;;;;;;35.58;24.42;;;12.60;99.90;;;;;;5105840;27;20533;-61
2021/09/03 00:30:28;;;;;;;36.10;23.67;;;12.60;99.90;;;;;;5087488;28;20056;-61
2021/09/03 00:32:54;;;;;;;33.88;24.08;;;12.60;99.90;;;;;;5088368;28;20113;-62
2021/09/03 00:35:22;;;;;;;39.22;25.15;;;12.60;99.90;;;;;;5086930;28;20051;-61
2021/09/03 00:37:48;;;;;;;33.78;23.33;;;12.50;99.90;;;;;;5085697;28;20048;-62
2021/09/03 00:40:14;;;;;;;37.95;24.25;;;12.50;99.90;;;;;;5086696;28;20052;-61
2021/09/03 00:42:43;;;;;;;36.70;24.30;;;12.50;99.90;;;;;;5081495;28;20512;-62
2021/09/03 00:45:11;;;;;;;34.03;24.65;;;12.50;99.90;;;;;;5082764;28;20424;-62
2021/09/03 00:47:40;;;;;;;37.43;25.00;;;12.50;99.90;;;;;;5088386;28;20090;-61
2021/09/03 00:50:09;;;;;;;35.78;23.70;;;12.40;99.90;;;;;;5084385;28;20055;-62
2021/09/03 00:52:35;;;;;;;34.40;24.48;;;12.40;99.90;;;;;;5103289;28;20118;-63
2021/09/03 00:55:02;;;;;;;40.53;24.95;;;12.40;99.90;;;;;;5076203;28;20501;-62
2021/09/03 00:57:29;;;;;;;30.58;22.90;;;12.30;99.90;;;;;;5088464;28;20063;-62
2021/09/03 00:59:57;;;;;;;31.85;22.48;;;12.30;99.90;;;;;;5069883;28;20048;-62
2021/09/03 01:02:24;;;;;;;32.83;23.83;;;12.30;99.90;;;;;;5079110;28;20074;-62
2021/09/03 01:04:53;;;;;;;34.47;23.23;;;12.20;99.90;;;;;;5085274;28;20060;-62
2021/09/03 01:07:19;;;;;;;31.52;22.35;;;12.20;99.90;;;;;;5083773;28;20062;-62
2021/09/03 01:09:45;;;;;;;30.02;22.38;;;12.10;99.90;;;;;;5069066;28;20060;-63
2021/09/03 01:12:11;;;;;;;33.65;23.30;;;12.10;99.90;;;;;;5082262;28;20052;-62
2021/09/03 01:14:40;;;;;;;29.50;21.98;;;12.10;99.90;;;;;;5086062;28;20477;-62
2021/09/03 01:17:08;;;;;;;28.52;21.15;;;12.10;99.90;;;;;;5080223;28;20055;-62
2021/09/03 01:19:34;;;;;;;29.23;23.00;;;12.00;99.90;;;;;;5067901;28;20058;-62
2021/09/03 01:22:01;;;;;;;31.48;22.10;;;12.00;99.90;;;;;;5080817;28;20132;-62
2021/09/03 01:24:29;;;;;;;36.45;23.38;;;12.00;99.90;;;;;;5080069;28;20523;-61
2021/09/03 01:26:56;;;;;;;33.28;22.40;;;11.90;99.90;;;;;;5083768;28;20048;-62
2021/09/03 01:29:22;;;;;;;28.98;22.27;;;11.90;99.90;;;;;;5066977;28;20135;-62
2021/09/03 01:31:50;;;;;;;31.75;22.08;;;11.90;99.90;;;;;;5073755;28;20059;-61
2021/09/03 01:34:19;;;;;;;32.30;22.17;;;11.90;99.90;;;;;;5081783;28;20052;-62
2021/09/03 01:36:47;;;;;;;33.22;22.75;;;11.80;99.90;;;;;;5086569;28;20048;-62
2021/09/03 01:39:13;;;;;;;30.90;20.90;;;11.80;99.90;;;;;;5076533;28;20048;-62
2021/09/03 01:41:42;;;;;;;30.95;21.92;;;11.80;99.90;;;;;;5086898;28;20052;-61
2021/09/03 01:44:11;;;;;;;29.52;22.02;;;11.80;99.90;;;;;;5075572;28;20068;-62
2021/09/03 01:46:37;;;;;;;31.98;22.80;;;11.80;99.90;;;;;;5076595;28;20477;-62
2021/09/03 01:49:06;;;;;;;32.30;21.95;;;11.80;99.90;;;;;;5077354;28;20052;-63
2021/09/03 01:51:32;;;;;;;29.45;20.65;;;11.70;99.90;;;;;;5067080;28;20060;-63
2021/09/03 01:54:03;;;;;;;29.80;20.52;;;11.70;99.90;;;;;;5086980;28;20056;-62
2021/09/03 01:56:32;;;;;;;30.10;21.85;;;11.60;99.90;;;;;;5083015;28;20128;-62
2021/09/03 01:58:58;;;;;;;28.98;20.65;;;11.60;99.90;;;;;;5076377;28;20062;-63
2021/09/03 02:01:24;;;;;;;31.80;22.27;;;11.60;99.90;;;;;;5087972;28;20048;-62
2021/09/03 02:03:52;;;;;;;32.28;22.77;;;11.60;99.90;;;;;;5092217;28;20075;-63
2021/09/03 02:06:22;;;;;;;32.83;22.20;;;11.60;99.90;;;;;;5089673;28;20044;-62
2021/09/03 02:08:48;;;;;;;31.00;21.25;;;11.60;99.90;;;;;;5071023;28;20048;-62
2021/09/03 02:11:19;;;;;;;34.25;23.83;;;11.60;99.90;;;;;;5091361;28;20090;-62
2021/09/03 02:13:48;;;;;;;30.73;22.20;;;11.60;99.90;;;;;;5090672;28;20401;-62
2021/09/03 02:16:16;;;;;;;28.85;20.50;;;11.60;99.90;;;;;;5085489;28;20040;-63
2021/09/03 02:18:45;;;;;;;30.60;20.63;;;11.50;99.90;;;;;;5085835;28;20461;-65
2021/09/03 02:21:14;;;;;;;29.58;20.65;;;11.60;99.90;;;;;;5092979;28;20044;-64
2021/09/03 02:23:42;;;;;;;30.48;21.83;;;11.50;99.90;;;;;;5090400;28;20458;-64
2021/09/03 02:26:11;;;;;;;30.42;22.13;;;11.50;99.90;;;;;;5070860;28;20060;-64
2021/09/03 02:28:37;;;;;;;27.10;19.85;;;11.40;99.90;;;;;;5071247;28;20523;-62
2021/09/03 02:31:05;;;;;;;28.17;19.70;;;11.40;99.90;;;;;;5077731;28;20052;-64
2021/09/03 02:33:31;;;;;;;26.60;20.27;;;11.40;99.90;;;;;;5084969;28;20052;-63
2021/09/03 02:36:00;;;;;;;25.88;18.27;;;11.30;99.90;;;;;;5079893;28;20447;-63
2021/09/03 02:38:26;;;;;;;29.95;21.38;;;11.30;99.90;;;;;;5104044;27;20125;-64
2021/09/03 02:40:55;;;;;;;29.80;19.98;;;11.30;99.90;;;;;;5073060;28;20059;-63
2021/09/03 02:43:27;;;;;;;27.45;18.80;;;11.30;99.90;;;;;;5071180;28;20094;-63
2021/09/03 02:45:58;;;;;;;26.05;18.73;;;11.20;99.90;;;;;;5078756;28;20056;-63
2021/09/03 02:48:26;;;;;;;29.15;18.73;;;11.10;99.90;;;;;;5070214;28;20048;-65
2021/09/03 02:50:54;;;;;;;26.52;18.13;;;11.20;99.90;;;;;;5069514;28;20136;-63
2021/09/03 02:53:23;;;;;;;26.10;19.05;;;11.10;99.90;;;;;;5087471;28;20052;-64
2021/09/03 02:55:49;;;;;;;25.70;17.73;;;11.10;99.90;;;;;;5090488;28;20400;-64
2021/09/03 02:58:15;;;;;;;23.00;17.63;;;11.10;99.90;;;;;;5089059;28;20064;-63
2021/09/03 03:00:46;;;;;;;25.17;17.25;;;11.10;99.90;;;;;;5071688;28;20143;-64
2021/09/03 03:03:13;;;;;;;26.88;18.55;;;11.10;99.90;;;;;;5058793;28;20048;-63
2021/09/03 03:05:39;;;;;;;24.08;17.42;;;11.00;99.90;;;;;;5089703;28;20044;-63
2021/09/03 03:08:08;;;;;;;26.67;17.88;;;11.00;99.90;;;;;;5080937;28;20075;-62
2021/09/03 03:10:37;;;;;;;24.25;17.27;;;10.90;99.90;;;;;;5074212;28;20459;-62
2021/09/03 03:13:19;;;;;;;24.23;17.25;;;10.90;99.90;;;;;;5076740;28;20093;-62
2021/09/03 03:15:48;;;;;;;21.90;16.45;;;10.90;99.90;;;;;;5090314;28;20051;-63
2021/09/03 03:18:15;;;;;;;25.58;17.80;;;10.90;99.90;;;;;;5067493;28;20092;-62
2021/09/03 03:20:41;;;;;;;22.42;16.63;;;10.90;99.90;;;;;;5088863;28;20109;-63
2021/09/03 03:23:08;;;;;;;26.20;18.48;;;10.80;99.90;;;;;;5088041;28;20054;-62
2021/09/03 03:25:34;;;;;;;26.77;18.30;;;10.80;99.90;;;;;;5089421;28;20052;-62
2021/09/03 03:28:03;;;;;;;25.58;18.35;;;10.80;99.90;;;;;;5084146;28;20080;-62
2021/09/03 03:30:31;;;;;;;24.33;17.83;;;10.80;99.90;;;;;;5090812;28;20406;-62
2021/09/03 03:33:00;;;;;;;24.77;17.63;;;10.80;99.90;;;;;;5089233;28;20123;-62
2021/09/03 03:35:28;;;;;;;23.40;16.88;;;10.80;99.90;;;;;;5080771;28;20170;-61
2021/09/03 03:37:57;;;;;;;23.05;16.55;;;10.80;99.90;;;;;;5089962;28;20131;-61
2021/09/03 03:40:23;;;;;;;22.10;17.20;;;10.80;99.90;;;;;;5089478;28;20052;-61
2021/09/03 03:42:52;;;;;;;25.27;15.20;;;10.70;99.90;;;;;;5088809;28;20523;-61
2021/09/03 03:45:22;;;;;;;24.17;17.15;;;10.70;99.90;;;;;;5078877;28;20549;-61
2021/09/03 03:47:51;;;;;;;23.45;16.98;;;10.60;99.90;;;;;;5075161;28;20052;-61
2021/09/03 03:50:17;;;;;;;21.25;16.50;;;10.60;99.90;;;;;;5096664;28;20133;-61
2021/09/03 03:52:48;;;;;;;22.83;17.60;;;10.60;99.90;;;;;;5089680;28;20055;-61
2021/09/03 03:55:16;;;;;;;21.52;16.38;;;10.60;99.90;;;;;;5088768;28;20470;-60
2021/09/03 03:57:45;;;;;;;24.80;16.55;;;10.60;99.90;;;;;;5090117;28;20063;-61
2021/09/03 04:00:11;;;;;;;21.80;15.95;;;10.60;99.90;;;;;;5075829;28;20040;-61
2021/09/03 04:02:40;;;;;;;21.98;14.88;;;10.50;99.90;;;;;;5088983;28;20051;-61
2021/09/03 04:05:09;;;;;;;24.45;16.10;;;10.50;99.90;;;;;;5087735;28;20048;-61
2021/09/03 04:07:35;;;;;;;23.58;16.10;;;10.50;99.90;;;;;;5079037;28;20113;-62
2021/09/03 04:10:02;;;;;;;21.58;16.42;;;10.40;99.90;;;;;;5078014;28;20052;-61
2021/09/03 04:12:29;;;;;;;22.98;15.63;;;10.40;99.90;;;;;;5086954;28;20056;-62
2021/09/03 04:14:58;;;;;;;23.67;15.55;;;10.40;99.90;;;;;;5088761;28;20146;-62
2021/09/03 04:17:26;;;;;;;23.90;15.77;;;10.40;99.90;;;;;;5078109;28;20048;-62
2021/09/03 04:19:56;;;;;;;21.63;15.40;;;10.40;99.90;;;;;;5068295;28;20055;-62
2021/09/03 04:22:22;;;;;;;23.08;15.02;;;10.40;99.90;;;;;;5080224;28;20056;-62
2021/09/03 04:24:51;;;;;;;19.70;14.45;;;10.40;99.90;;;;;;5081906;28;20129;-61
2021/09/03 04:27:22;;;;;;;22.52;15.45;;;10.40;99.90;;;;;;5078986;28;20114;-61
2021/09/03 04:29:48;;;;;;;17.13;12.63;;;10.30;99.90;;;;;;5087217;28;20055;-62
2021/09/03 04:32:16;;;;;;;21.67;14.18;;;10.30;99.90;;;;;;5079484;28;20059;-61
2021/09/03 04:34:45;;;;;;;17.98;12.38;;;10.40;99.90;;;;;;5098290;28;20044;-62
2021/09/03 04:37:16;;;;;;;18.95;12.93;;;10.30;99.90;;;;;;5084650;28;20052;-62
2021/09/03 04:39:47;;;;;;;16.17;13.02;;;10.30;99.90;;;;;;5086564;28;20094;-62
2021/09/03 04:42:14;;;;;;;16.17;11.77;;;10.20;99.90;;;;;;5076389;28;20592;-61
2021/09/03 04:44:40;;;;;;;15.60;12.02;;;10.20;99.90;;;;;;5086692;28;20083;-61
2021/09/03 04:47:11;;;;;;;19.23;12.93;;;10.20;99.90;;;;;;5076220;28;20431;-62
2021/09/03 04:49:39;;;;;;;16.05;11.73;;;10.20;99.90;;;;;;5087177;28;20102;-62
2021/09/03 04:52:08;;;;;;;17.15;12.23;;;10.20;99.90;;;;;;5083994;28;20513;-62
2021/09/03 04:54:36;;;;;;;15.13;12.07;;;10.20;99.90;;;;;;5081666;28;20524;-62
2021/09/03 04:57:05;;;;;;;16.52;11.57;;;10.10;99.90;;;;;;5086963;28;20366;-62
2021/09/03 04:59:34;;;;;;;15.52;11.90;;;10.10;99.90;;;;;;5076227;28;20087;-61
2021/09/03 05:02:03;;;;;;;16.23;11.50;;;10.10;99.90;;;;;;5086819;28;20048;-62
2021/09/03 05:04:31;;;;;;;21.77;13.93;;;10.10;99.90;;;;;;5074324;28;20127;-61
2021/09/03 05:07:00;;;;;;;24.45;15.23;;;10.20;99.90;;;;;;5113029;27;20056;-62
2021/09/03 05:09:29;;;;;;;25.20;16.63;;;10.20;99.90;;;;;;5085749;28;20798;-62
2021/09/03 05:12:00;;;;;;;22.88;16.85;;;10.20;99.90;;;;;;5087372;28;20511;-58
2021/09/03 05:14:30;;;;;;;25.52;16.75;;;10.30;99.90;;;;;;5118059;27;20128;-57
2021/09/03 05:16:57;;;;;;;24.30;16.00;;;10.40;99.90;;;;;;5087934;28;20048;-58
2021/09/03 05:19:26;;;;;;;21.08;15.50;;;10.40;99.90;;;;;;5086681;28;20539;-58
2021/09/03 05:21:53;;;;;;;23.48;15.85;;;10.50;99.90;;;;;;5085765;28;20048;-57
2021/09/03 05:24:21;;;;;;;26.40;15.65;;;10.50;99.90;;;;;;5085004;28;20052;-58
2021/09/03 05:26:50;;;;;;;22.33;14.23;;;10.60;99.90;;;;;;5083761;28;20596;-57
2021/09/03 05:29:19;;;;;;;22.13;15.77;;;10.60;99.90;;;;;;5067812;28;20136;-57
2021/09/03 05:31:47;;;;;;;20.02;14.52;;;10.60;99.90;;;;;;5081970;28;20117;-55
2021/09/03 05:34:13;;;;;;;19.35;14.93;;;10.70;99.90;;;;;;5079830;28;20044;-57
2021/09/03 05:36:40;;;;;;;21.75;15.20;;;10.80;99.90;;;;;;5065789;28;20095;-55
2021/09/03 05:39:18;;;;;;;28.20;15.25;;;10.80;99.90;;;;;;5077355;28;20114;-56
2021/09/03 05:41:46;;;;;;;22.33;15.68;;;10.90;99.90;;;;;;5087506;28;20547;-55
2021/09/03 05:44:18;;;;;;;21.77;14.10;;;11.00;99.90;;;;;;5084510;28;20052;-58
2021/09/03 05:46:44;;;;;;;;;;;11.10;99.90;;;;;;5093281;28;20519;-57
2021/09/03 05:49:16;;;;;;;22.20;16.02;;;11.30;99.90;;;;;;5084089;28;19928;-56
2021/09/03 05:51:49;;;;;;;26.38;16.92;;;11.40;99.90;;;;;;5086251;28;20123;-56
2021/09/03 05:54:18;;;;;;;21.17;16.00;;;11.60;99.90;;;;;;5085021;28;20109;-56
2021/09/03 05:56:47;;;;;;;20.85;15.20;;;11.70;99.90;;;;;;5068656;28;20048;-56
2021/09/03 05:59:21;;;;;;;23.77;16.05;;;11.80;99.90;;;;;;5085851;28;20059;-58
2021/09/03 06:01:53;;;;;;;22.10;17.80;;;11.90;99.90;;;;;;5084429;28;20481;-55
2021/09/03 06:04:22;;;;;;;56.13;47.00;;;12.00;99.90;;;;;;5083991;28;20093;-55
2021/09/03 06:06:55;;;;;;;21.00;15.40;;;12.20;99.90;;;;;;5084470;28;20036;-56
2021/09/03 06:09:26;;;;;;;20.75;14.13;;;12.30;99.90;;;;;;5087841;28;20130;-56
2021/09/03 06:11:54;;;;;;;22.13;16.48;;;12.50;99.90;;;;;;5078436;28;20505;-57
2021/09/03 06:14:23;;;;;;;23.42;17.23;;;12.60;99.90;;;;;;5076350;28;20087;-57
2021/09/03 06:16:49;;;;;;;18.60;13.35;;;12.80;99.90;;;;;;5086428;28;20446;-57
2021/09/03 06:19:21;;;;;;;18.77;13.32;;;13.00;99.90;;;;;;5067185;28;20238;-57
2021/09/03 06:21:48;;;;;;;17.17;13.57;;;13.10;99.90;;;;;;5086096;28;20056;-58
2021/09/03 06:24:30;;;;;;;18.77;14.05;;;13.30;99.90;;;;;;5081821;28;20079;-57
2021/09/03 06:27:02;;;;;;;16.90;13.55;;;13.50;99.90;;;;;;5079149;28;20059;-57
2021/09/03 06:32:05;;;;;;;18.48;14.57;;;13.80;99.90;;;;;;5065742;28;20417;-57
2021/09/03 06:34:40;;;;;;;25.17;19.50;;;14.10;99.90;;;;;;5101717;28;20055;-57
2021/09/03 06:37:11;;;;;;;18.25;12.13;;;14.20;99.90;;;;;;5048442;28;20044;-58
2021/09/03 06:39:40;;;;;;;24.75;17.50;;;14.40;99.90;;;;;;5067718;28;20056;-57
2021/09/03 06:42:10;;;;;;;19.48;13.90;;;14.70;99.90;;;;;;5085575;28;20062;-57
2021/09/03 06:44:39;;;;;;;15.32;12.77;;;14.90;99.90;;;;;;5089033;28;20139;-58
2021/09/03 06:47:08;;;;;;;13.25;11.85;;;15.10;99.90;;;;;;5090460;28;20098;-57
2021/09/03 06:49:37;;;;;;;18.23;13.48;;;15.30;99.90;;;;;;5110258;27;20056;-57
2021/09/03 06:52:07;;;;;;;17.33;12.85;;;15.60;99.90;;;;;;5077272;28;20052;-57
2021/09/03 06:54:42;;;;;;;17.90;12.38;;;15.90;99.90;;;;;;5081070;28;20056;-57
2021/09/03 06:57:14;;;;;;;14.25;12.73;;;16.20;99.90;;;;;;5081779;28;20105;-58
2021/09/03 06:59:40;;;;;;;15.73;13.13;;;16.60;99.90;;;;;;5102824;28;20563;-58
2021/09/03 07:02:13;;;;;;;17.65;13.43;;;16.90;99.90;;;;;;5074450;28;20404;-57
2021/09/03 07:04:45;;;;;;;18.00;15.65;;;17.30;99.90;;;;;;5089446;28;20056;-58
2021/09/03 07:07:14;;;;;;;19.95;16.67;;;17.50;99.90;;;;;;5070663;28;20055;-57
2021/09/03 07:09:43;;;;;;;18.23;14.38;;;17.80;99.90;;;;;;5083017;28;20062;-58
2021/09/03 07:12:12;;;;;;;19.42;13.85;;;18.20;99.90;;;;;;5089409;28;20530;-58
2021/09/03 07:14:41;;;;;;;21.40;13.60;;;18.50;99.90;;;;;;5084017;28;20089;-58
2021/09/03 07:17:07;;;;;;;17.20;14.80;;;18.70;99.90;;;;;;5086328;28;20067;-59
2021/09/03 07:19:34;;;;;;;28.75;24.52;;;18.90;99.90;;;;;;5087952;28;20044;-57
2021/09/03 07:22:05;;;;;;;31.38;27.98;;;19.20;99.90;;;;;;5085676;28;20063;-57
2021/09/03 07:24:33;;;;;;;40.95;36.30;;;19.50;99.90;;;;;;5081235;28;20049;-57
2021/09/03 07:27:03;;;;;;;15.98;14.00;;;19.80;99.90;;;;;;5071434;28;20048;-58
2021/09/03 07:29:29;;;;;;;18.95;14.95;;;20.10;99.90;;;;;;5079777;28;20059;-57
2021/09/03 07:31:57;;;;;;;17.40;15.02;;;20.30;99.90;;;;;;5087300;28;20055;-58
2021/09/03 07:34:29;;;;;;;20.45;16.58;;;20.60;99.90;;;;;;5087055;28;20056;-58
2021/09/03 07:36:55;;;;;;;17.70;14.00;;;20.60;99.90;;;;;;5087666;28;20056;-58
2021/09/03 07:39:25;;;;;;;19.40;15.93;;;21.00;99.90;;;;;;5082582;28;20056;-58
2021/09/03 07:41:54;;;;;;;19.23;15.90;;;21.20;99.90;;;;;;5086897;28;20059;-58
2021/09/03 07:44:23;;;;;;;27.95;22.77;;;21.20;99.90;;;;;;5085066;28;20140;-57
2021/09/03 07:46:52;;;;;;;18.77;14.75;;;21.50;99.90;;;;;;5084011;28;20059;-59
2021/09/03 07:49:20;;;;;;;18.45;13.95;;;21.40;99.90;;;;;;5080510;28;20052;-58
2021/09/03 07:51:49;;;;;;;19.80;16.13;;;21.60;99.90;;;;;;5117177;27;20079;-60
2021/09/03 07:54:20;;;;;;;25.85;21.90;;;22.00;99.90;;;;;;5086949;28;20516;-58
2021/09/03 07:56:48;;;;;;;15.10;13.18;;;22.10;99.90;;;;;;5085867;28;20080;-59
2021/09/03 07:59:14;;;;;;;17.42;13.52;;;22.10;99.90;;;;;;5084398;28;20056;-58
2021/09/03 08:01:45;;;;;;;23.75;17.30;;;22.20;99.90;;;;;;5067245;28;20056;-61
2021/09/03 08:04:17;;;;;;;18.25;12.23;;;22.30;99.90;;;;;;5067422;28;20056;-60
2021/09/03 08:06:43;;;;;;;22.55;14.40;;;22.40;99.90;;;;;;5079835;28;20052;-61
2021/09/03 08:09:14;;;;;;;26.90;22.60;;;22.50;99.90;;;;;;5090083;28;20054;-61
2021/09/03 08:11:46;;;;;;;21.05;15.27;;;22.50;99.90;;;;;;5067725;28;20067;-61
2021/09/03 08:14:18;;;;;;;17.85;14.68;;;22.20;99.90;;;;;;5068097;28;20048;-61
2021/09/03 08:16:44;;;;;;;20.00;13.27;;;22.10;99.90;;;;;;5076506;28;20048;-61
2021/09/03 08:19:10;;;;;;;12.48;8.35;;;21.90;99.90;;;;;;5087902;28;20508;-57
2021/09/03 08:21:42;;;;;;;13.18;9.15;;;21.70;99.90;;;;;;5078856;28;20080;-58
2021/09/03 08:24:14;;;;;;;23.80;20.23;;;21.60;99.90;;;;;;5079076;28;20052;-58
2021/09/03 08:26:46;;;;;;;22.63;18.55;;;21.20;99.90;;;;;;5105862;27;20824;-58
2021/09/03 08:29:22;;;;;;;29.63;24.38;;;20.70;99.90;;;;;;5087412;28;20052;-58
2021/09/03 08:31:51;;;;;;;23.20;16.58;;;20.40;99.90;;;;;;5083939;28;20052;-58
2021/09/03 08:34:20;;;;;;;17.05;10.25;;;20.40;99.90;;;;;;5084956;28;20101;-58
2021/09/03 08:36:51;;;;;;;15.73;8.77;;;20.60;99.90;;;;;;5085894;28;20087;-58
2021/09/03 08:39:20;;;;;;;33.67;27.85;;;20.60;99.90;;;;;;5085410;28;20060;-58
2021/09/03 08:41:49;;;;;;;15.65;9.05;;;20.50;99.90;;;;;;5083773;28;20105;-58
2021/09/03 08:44:15;;;;;;;32.20;28.27;;;20.20;99.90;;;;;;5084212;28;20051;-53
2021/09/03 08:46:45;;;;;;;18.33;9.77;;;20.00;99.90;;;;;;5079397;28;20063;-52
2021/09/03 08:49:14;;;;;;;18.92;11.32;;;20.00;99.90;;;;;;5083024;28;20378;-53
2021/09/03 08:51:40;;;;;;;13.93;8.90;;;19.80;99.90;;;;;;5114088;27;20056;-54
2021/09/03 08:54:07;;;;;;;17.42;9.32;;;19.70;99.90;;;;;;5068138;28;20479;-52
2021/09/03 08:56:35;;;;;;;16.55;8.57;;;19.60;99.90;;;;;;5070921;28;20104;-56
2021/09/03 08:59:01;;;;;;;16.08;10.18;;;19.40;99.90;;;;;;5086935;28;20059;-53
2021/09/03 09:01:30;;;;;;;18.50;10.40;;;19.70;99.90;;;;;;5087856;28;20817;-52
2021/09/03 09:04:15;;;;;;;17.92;9.77;;;19.80;99.90;;;;;;5088269;28;20500;-51
2021/09/03 09:07:06;;;;;;;14.80;10.57;;;19.70;99.90;;;;;;5085510;28;20744;-55
2021/09/03 09:09:43;;;;;;;18.40;11.57;;;19.90;99.90;;;;;;5085907;28;20154;-52
2021/09/03 09:12:17;;;;;;;19.83;14.18;;;19.90;99.90;;;;;;5087718;28;20067;-53
2021/09/03 09:15:24;;;;;;;16.92;9.40;;;20.30;99.90;;;;;;5086774;28;20059;-55
2021/09/03 09:17:58;;;;;;;15.00;9.55;;;20.60;99.90;;;;;;5064259;28;20103;-51
2021/09/03 09:20:27;;;;;;;15.63;8.95;;;20.80;99.90;;;;;;5064427;28;20506;-50
2021/09/03 09:22:58;;;;;;;13.77;8.98;;;20.70;99.90;;;;;;5060774;28;20230;-53
2021/09/03 09:25:31;;;;;;;14.68;9.93;;;21.10;99.90;;;;;;5064349;28;20680;-56
2021/09/03 09:28:16;;;;;;;15.40;8.45;;;21.60;99.90;;;;;;5064292;28;20467;-57
2021/09/03 09:30:50;;;;;;;16.50;10.32;;;22.50;99.90;;;;;;5064355;28;20056;-56
2021/09/03 09:33:22;;;;;;;17.25;11.43;;;22.80;99.90;;;;;;5064018;28;20058;-54
2021/09/03 09:35:58;;;;;;;17.77;8.30;;;23.00;99.90;;;;;;5054232;28;20167;-57
2021/09/03 09:38:34;;;;;;;16.25;11.52;;;23.00;98.10;;;;;;5035229;28;20409;-54
2021/09/03 09:41:02;;;;;;;13.52;8.98;;;23.60;97.90;;;;;;5064727;28;20059;-58
2021/09/03 09:43:34;;;;;;;13.35;7.57;;;24.00;95.90;;;;;;5064179;28;20099;-58
2021/09/03 09:46:12;;;;;;;18.30;12.98;;;24.00;93.80;;;;;;5063002;28;20048;-57
2021/09/03 09:48:54;;;;;;;13.15;7.47;;;24.50;90.70;;;;;;5063699;28;20086;-57
2021/09/03 09:51:23;;;;;;;;;;;24.60;85.00;;;;;;5074008;28;20048;-57
2021/09/03 09:54:11;;;;;;;16.38;7.78;;;25.00;84.30;;;;;;5087281;28;20308;-56
2021/09/03 09:56:50;;;;;;;16.95;11.85;;;24.30;82.70;;;;;;5082494;28;20048;-58
2021/09/03 09:59:17;;;;;;;14.00;8.05;;;24.60;86.30;;;;;;5085993;28;20132;-55
2021/09/03 10:01:47;;;;;;;13.32;8.13;;;24.30;86.80;;;;;;5087016;28;20522;-56
2021/09/03 10:04:19;;;;;;;13.70;8.63;;;24.40;87.50;;;;;;5086306;28;20103;-54
2021/09/03 10:06:47;;;;;;;14.20;9.25;;;24.80;84.40;;;;;;5068650;28;20056;-56
2021/09/03 10:09:19;;;;;;;13.27;7.57;;;25.30;78.20;;;;;;5075818;28;20113;-57
2021/09/03 10:11:53;;;;;;;14.50;8.13;;;25.00;77.20;;;;;;5086835;28;20252;-56
2021/09/03 10:14:28;;;;;;;11.25;8.13;;;25.40;78.90;;;;;;5087633;28;20109;-57
2021/09/03 10:16:59;;;;;;;12.20;6.90;;;26.10;72.90;;;;;;5085513;28;20055;-52
2021/09/03 10:19:36;;;;;;;14.57;8.20;;;26.30;70.30;;;;;;5083668;28;20048;-55
2021/09/03 10:22:10;;;;;;;11.50;6.63;;;25.90;69.50;;;;;;5084781;28;20408;-52
2021/09/03 10:24:45;;;;;;;13.77;7.15;;;26.20;69.90;;;;;;5090471;28;20087;-54
2021/09/03 10:27:14;;;;;;;40.75;36.42;;;25.80;69.80;;;;;;5086429;28;20385;-55
2021/09/03 10:29:47;;;;;;;16.98;12.88;;;25.10;71.80;;;;;;5080144;28;20512;-55
2021/09/03 10:32:23;;;;;;;19.60;15.10;;;24.80;73.10;;;;;;5083236;28;20759;-56
2021/09/03 10:34:56;;;;;;;31.02;27.58;;;25.00;76.00;;;;;;5072342;28;20136;-49
2021/09/03 10:37:30;;;;;;;19.52;12.82;;;25.40;73.70;;;;;;5071214;28;20133;-54
2021/09/03 10:40:06;;;;;;;14.27;9.68;;;25.00;73.80;;;;;;5070386;28;20051;-52
2021/09/03 10:42:48;;;;;;;28.13;24.75;;;25.00;74.20;;;;;;5086811;28;20412;-49
2021/09/03 10:45:23;;;;;;;26.52;21.88;;;24.50;76.10;;;;;;5090608;28;20060;-51
2021/09/03 10:48:03;;;;;;;14.50;8.02;;;24.40;77.70;;;;;;5091355;28;20434;-47
2021/09/03 10:50:51;;;;;;;12.75;8.50;;;24.40;80.30;;;;;;5084423;28;20059;-48
2021/09/03 10:53:21;;;;;;;14.00;8.57;;;24.30;77.90;;;;;;5074287;28;20056;-53
2021/09/03 10:55:52;;;;;;;13.52;8.40;;;24.10;79.70;;;;;;5089887;28;20528;-53
2021/09/03 10:58:35;;;;;;;11.32;7.70;;;24.90;79.90;;;;;;5078266;28;20386;-50
2021/09/03 11:01:13;;;;;;;12.68;8.25;;;25.70;73.80;;;;;;5071364;28;20147;-50
2021/09/03 11:03:59;;;;;;;12.88;8.20;;;26.20;69.30;;;;;;5088357;28;20067;-52
2021/09/03 11:06:36;;;;;;;15.32;9.95;;;26.40;69.90;;;;;;5074266;28;20052;-53
2021/09/03 11:09:20;;;;;;;15.85;10.80;;;27.30;66.00;;;;;;5070125;28;20595;-54
2021/09/03 11:11:50;;;;;;;17.33;11.85;;;28.10;64.70;;;;;;5085061;28;20053;-57
2021/09/03 11:14:20;;;;;;;;;;;28.10;62.00;;;;;;5075423;28;20078;-50
2021/09/03 11:16:53;;;;;;;14.60;9.27;;;27.20;61.20;;;;;;5083900;28;19923;-49
2021/09/03 11:19:32;;;;;;;14.68;10.20;;;26.60;64.10;;;;;;5084776;28;20522;-51
2021/09/03 11:22:04;;;;;;;15.18;8.30;;;26.00;64.70;;;;;;5081174;28;20071;-53
2021/09/03 11:24:37;;;;;;;12.18;7.95;;;25.70;66.00;;;;;;5089858;28;20847;-50
2021/09/03 11:27:08;;;;;;;17.52;12.50;;;25.40;66.80;;;;;;5089150;28;20048;-50
2021/09/03 11:29:45;;;;;;;16.52;8.93;;;24.90;68.50;;;;;;5084788;28;20052;-51
2021/09/03 11:32:16;;;;;;;18.40;13.30;;;25.10;70.00;;;;;;5089175;28;20044;-52
2021/09/03 11:34:50;;;;;;;15.88;9.55;;;25.90;72.50;;;;;;5089436;28;20052;-52
2021/09/03 11:37:32;;;;;;;22.00;18.20;;;25.90;69.10;;;;;;5083965;28;20063;-53
2021/09/03 11:40:10;;;;;;;16.70;11.75;;;25.70;68.00;;;;;;5088497;28;20465;-49
2021/09/03 11:42:49;;;;;;;16.88;9.73;;;25.90;68.50;;;;;;5086172;28;20055;-55
2021/09/03 11:45:23;;;;;;;15.45;10.10;;;26.70;66.50;;;;;;5090525;28;20052;-49
2021/09/03 11:48:00;;;;;;;12.30;9.90;;;27.40;64.30;;;;;;5088823;28;20055;-52
2021/09/03 11:50:38;;;;;;;19.58;15.15;;;27.90;60.40;;;;;;5086901;28;20067;-52
2021/09/03 11:53:10;;;;;;;19.98;16.60;;;27.90;59.40;;;;;;5088566;28;20055;-57
2021/09/03 11:55:42;;;;;;;15.93;11.35;;;27.60;58.80;;;;;;5086192;28;20060;-55
2021/09/03 11:58:17;;;;;;;16.58;12.70;;;27.80;60.20;;;;;;5079298;28;20063;-56
2021/09/03 12:00:54;;;;;;;14.95;10.52;;;27.90;60.40;;;;;;5085492;28;20087;-57
2021/09/03 12:03:22;;;;;;;16.27;9.00;;;28.50;58.20;;;;;;5072356;28;20079;-57
2021/09/03 12:05:55;;;;;;;14.18;9.88;;;28.40;57.00;;;;;;5087491;28;20044;-57
2021/09/03 12:08:31;;;;;;;15.73;10.63;;;28.50;56.50;;;;;;5088077;28;20450;-58
2021/09/03 12:10:59;;;;;;;16.95;11.98;;;28.20;56.90;;;;;;5084004;28;20048;-57
2021/09/03 12:13:30;;;;;;;15.50;11.43;;;28.50;57.10;;;;;;5076711;28;20504;-57
2021/09/03 12:16:08;;;;;;;15.38;10.30;;;28.10;57.80;;;;;;5083222;28;20070;-56
2021/09/03 12:18:45;;;;;;;14.35;10.48;;;27.60;58.20;;;;;;5082632;28;20209;-56
2021/09/03 12:21:21;;;;;;;14.73;9.93;;;27.10;59.00;;;;;;5078033;28;20075;-58
2021/09/03 12:23:53;;;;;;;28.15;25.38;;;27.20;60.30;;;;;;5085662;28;20052;-58
2021/09/03 12:26:26;;;;;;;16.50;11.10;;;27.20;60.00;;;;;;5079802;28;20066;-58
2021/09/03 12:28:57;;;;;;;22.67;20.20;;;26.70;61.50;;;;;;5088280;28;20135;-58
2021/09/03 12:31:31;;;;;;;22.50;19.50;;;26.90;61.80;;;;;;5088208;28;20102;-59
2021/09/03 12:34:07;;;;;;;15.85;12.60;;;26.60;61.00;;;;;;5072781;28;20056;-59
2021/09/03 12:36:36;;;;;;;13.82;9.50;;;27.00;60.50;;;;;;5081953;28;20498;-58
2021/09/03 12:39:20;;;;;;;15.13;10.17;;;27.40;59.20;;;;;;5081162;28;20052;-58
2021/09/03 12:41:48;;;;;;;19.20;16.83;;;27.90;59.40;;;;;;5065970;28;20467;-58
2021/09/03 12:44:27;;;;;;;18.55;15.30;;;28.10;57.50;;;;;;5079319;28;20067;-58
2021/09/03 12:47:00;;;;;;;16.27;10.75;;;28.50;56.40;;;;;;5067170;28;20048;-58
2021/09/03 12:49:29;;;;;;;19.73;14.13;;;28.90;56.70;;;;;;5078987;28;20049;-58